createdAt,value
2023-02-11T00:00:39.882Z,70.00
2023-02-11T00:03:42.428Z,76.07
2023-02-11T00:06:45.010Z,72.07
2023-02-11T00:09:47.595Z,65.20
2023-02-11T00:12:50.116Z,66.53
2023-02-11T00:15:53.633Z,71.40
2023-02-11T00:18:56.152Z,69.37
2023-02-11T00:21:58.849Z,71.55
2023-02-11T00:25:01.532Z,72.55
2023-02-11T00:28:04.342Z,68.80
2023-02-11T00:31:07.107Z,73.55
2023-02-11T00:34:10.526Z,70.38
2023-02-11T00:37:14.237Z,67.60
2023-02-11T00:40:17.777Z,75.57
2023-02-11T00:43:20.551Z,70.88
2023-02-11T00:46:23.778Z,71.47
2023-02-11T00:49:26.318Z,75.70
2023-02-11T00:52:30.078Z,63.80
2023-02-11T00:55:32.594Z,64.82
2023-02-11T00:58:35.647Z,70.90
2023-02-11T01:01:38.557Z,65.30
2023-02-11T01:04:41.203Z,68.57
2023-02-11T01:07:43.710Z,72.07
2023-02-11T01:11:03.782Z,62.08
2023-02-11T01:14:06.218Z,66.97
2023-02-11T01:17:08.757Z,63.63
2023-02-11T01:20:17.059Z,65.50
2023-02-11T01:23:19.591Z,59.83
2023-02-11T01:26:22.036Z,66.85
2023-02-11T01:29:26.062Z,62.47
2023-02-11T01:32:31.280Z,59.90
2023-02-11T01:35:33.682Z,68.28
2023-02-11T01:38:36.449Z,61.70
2023-02-11T01:41:39.176Z,63.05
2023-02-11T01:44:42.032Z,54.55
2023-02-11T01:47:44.718Z,68.05
2023-02-11T01:50:50.847Z,58.87
2023-02-11T01:54:14.100Z,62.42
2023-02-11T01:57:23.417Z,55.70
2023-02-11T02:00:38.879Z,55.47
2023-02-11T02:03:45.520Z,57.65
2023-02-11T02:06:56.190Z,62.83
2023-02-11T02:10:04.705Z,61.80
2023-02-11T02:13:07.319Z,45.55
2023-02-11T02:16:19.734Z,58.05
2023-02-11T02:19:40.758Z,56.80
2023-02-11T02:23:01.709Z,49.40
2023-02-11T02:26:04.069Z,53.83
2023-02-11T02:29:34.861Z,59.13
2023-02-11T02:32:49.489Z,57.10
2023-02-11T02:36:01.131Z,50.92
2023-02-11T02:39:09.529Z,51.33
2023-02-11T02:42:13.104Z,52.53
2023-02-11T02:45:16.583Z,48.28
2023-02-11T02:48:28.342Z,53.65
2023-02-11T02:51:45.954Z,50.50
2023-02-11T02:55:20.678Z,49.37
2023-02-11T02:58:32.240Z,50.33
2023-02-11T03:01:50.246Z,43.90
2023-02-11T03:05:04.692Z,49.73
2023-02-11T03:08:13.509Z,43.05
2023-02-11T03:11:19.180Z,48.78
2023-02-11T03:14:23.638Z,41.95
2023-02-11T03:17:28.651Z,50.95
2023-02-11T03:20:36.630Z,48.72
2023-02-11T03:24:01.067Z,46.42
2023-02-11T03:27:29.184Z,44.97
2023-02-11T03:31:03.434Z,50.10
2023-02-11T03:34:14.516Z,47.30
2023-02-11T03:37:37.099Z,47.90
2023-02-11T03:40:42.429Z,52.55
2023-02-11T03:43:48.576Z,52.17
2023-02-11T03:46:54.058Z,54.47
2023-02-11T03:49:59.453Z,57.95
2023-02-11T03:53:03.599Z,51.05
2023-02-11T03:56:11.575Z,53.58
2023-02-11T03:59:13.957Z,47.13
2023-02-11T04:02:16.853Z,50.08
2023-02-11T04:05:19.491Z,51.28
2023-02-11T04:08:22.175Z,56.70
2023-02-11T04:11:24.718Z,52.13
2023-02-11T04:14:27.143Z,49.10
2023-02-11T04:17:29.566Z,43.08
2023-02-11T04:20:32.101Z,49.60
2023-02-11T04:23:34.552Z,52.08
2023-02-11T04:26:37.027Z,48.75
2023-02-11T04:29:39.527Z,50.83
2023-02-11T04:32:41.956Z,46.80
2023-02-11T04:35:44.409Z,49.78
2023-02-11T04:38:46.855Z,50.57
2023-02-11T04:41:49.627Z,54.83
2023-02-11T04:44:52.300Z,49.78
2023-02-11T04:47:54.712Z,50.00
2023-02-11T04:50:57.435Z,47.55
2023-02-11T04:53:59.932Z,46.90
2023-02-11T04:57:02.701Z,52.55
2023-02-11T05:00:06.028Z,49.27
2023-02-11T05:03:08.466Z,47.22
2023-02-11T05:06:11.527Z,48.42
2023-02-11T05:09:14.664Z,48.70
2023-02-11T05:12:18.272Z,47.53
2023-02-11T05:15:20.693Z,44.28
2023-02-11T05:18:24.124Z,53.75
2023-02-11T05:21:26.660Z,47.08
2023-02-11T05:24:29.127Z,48.90
2023-02-11T05:27:31.563Z,44.45
2023-02-11T05:30:34.424Z,51.47
2023-02-11T05:33:36.884Z,49.92
2023-02-11T05:36:39.315Z,53.05
2023-02-11T05:39:41.852Z,46.23
2023-02-11T05:42:44.294Z,50.20
2023-02-11T05:45:46.730Z,52.65
2023-02-11T05:48:49.125Z,50.10
2023-02-11T05:51:51.576Z,49.22
2023-02-11T05:54:54.009Z,52.78
2023-02-11T05:57:56.524Z,49.72
2023-02-11T06:00:59.068Z,55.40
2023-02-11T06:04:01.557Z,52.60
2023-02-11T06:07:04.402Z,48.28
2023-02-11T06:10:07.610Z,47.43
2023-02-11T06:13:10.264Z,48.70
2023-02-11T06:16:12.710Z,48.33
2023-02-11T06:19:15.104Z,49.47
2023-02-11T06:22:17.759Z,46.53
2023-02-11T06:25:20.319Z,52.17
2023-02-11T06:28:22.906Z,51.80
2023-02-11T06:31:26.159Z,56.97
2023-02-11T06:34:28.723Z,61.17
2023-02-11T06:37:31.442Z,55.78
2023-02-11T06:40:33.986Z,52.40
2023-02-11T06:43:36.447Z,55.28
2023-02-11T06:46:39.016Z,52.97
2023-02-11T06:49:41.863Z,52.13
2023-02-11T06:52:44.946Z,59.17
2023-02-11T06:55:47.495Z,56.85
2023-02-11T06:58:55.673Z,60.47
2023-02-11T07:02:00.359Z,60.00
2023-02-11T07:05:06.882Z,54.63
2023-02-11T07:08:10.115Z,62.05
2023-02-11T07:11:24.339Z,61.77
2023-02-11T07:14:27.196Z,61.00
2023-02-11T07:17:29.686Z,65.57
2023-02-11T07:20:32.210Z,52.55
2023-02-11T07:23:35.614Z,58.28
2023-02-11T07:26:38.552Z,53.97
2023-02-11T07:29:42.776Z,58.30
2023-02-11T07:32:46.762Z,55.97
2023-02-11T07:35:49.515Z,52.10
2023-02-11T07:38:52.679Z,51.08
2023-02-11T07:41:55.496Z,46.97
2023-02-11T07:44:59.058Z,47.20
2023-02-11T07:48:01.682Z,51.97
2023-02-11T07:51:12.465Z,58.28
2023-02-11T07:54:16.457Z,52.22
2023-02-11T07:57:18.951Z,57.67
2023-02-11T08:00:22.407Z,50.75
2023-02-11T08:03:24.893Z,46.87
2023-02-11T08:06:31.249Z,54.97
2023-02-11T08:09:34.655Z,52.53
2023-02-11T08:12:37.193Z,54.77
2023-02-11T08:15:39.694Z,52.05
2023-02-11T08:18:42.637Z,52.08
2023-02-11T08:21:46.140Z,55.38
2023-02-11T08:24:51.333Z,52.55
2023-02-11T08:27:54.750Z,54.90
2023-02-11T08:30:58.065Z,54.97
2023-02-11T08:34:02.478Z,63.93
2023-02-11T08:37:09.284Z,56.15
2023-02-11T08:40:11.917Z,58.85
2023-02-11T08:43:14.595Z,55.83
2023-02-11T08:46:19.867Z,69.05
2023-02-11T08:49:22.871Z,61.67
2023-02-11T08:52:25.614Z,59.00
2023-02-11T08:55:28.579Z,61.17
2023-02-11T08:58:31.098Z,60.10
2023-02-11T09:01:33.972Z,58.00
2023-02-11T09:04:36.472Z,53.27
2023-02-11T09:07:39.016Z,57.67
2023-02-11T09:10:41.451Z,56.78
2023-02-11T09:13:45.080Z,50.17
2023-02-11T09:16:48.532Z,40.40
2023-02-11T09:19:51.256Z,45.00
2023-02-11T09:22:55.203Z,40.38
2023-02-11T09:25:57.997Z,42.20
2023-02-11T09:29:01.542Z,42.73
2023-02-11T09:32:04.511Z,35.63
2023-02-11T09:35:07.528Z,37.95
2023-02-11T09:38:10.017Z,38.58
2023-02-11T09:41:46.825Z,31.90
2023-02-11T09:44:49.896Z,34.57
2023-02-11T09:48:00.547Z,33.45
2023-02-11T09:51:04.409Z,38.58
2023-02-11T09:54:23.675Z,39.47
2023-02-11T09:57:34.284Z,37.60
2023-02-11T10:00:44.498Z,37.97
2023-02-11T10:04:24.809Z,40.33
2023-02-11T10:07:42.383Z,36.72
2023-02-11T10:10:56.899Z,39.30
2023-02-11T10:14:21.575Z,36.00
2023-02-11T10:17:33.028Z,35.45
2023-02-11T10:20:46.080Z,33.58
2023-02-11T10:23:54.008Z,38.00
2023-02-11T10:26:56.512Z,31.67
2023-02-11T10:30:16.136Z,32.90
2023-02-11T10:33:43.637Z,34.88
2023-02-11T10:36:46.076Z,38.03
2023-02-11T10:39:49.818Z,37.57
2023-02-11T10:42:55.974Z,36.13
2023-02-11T10:46:00.461Z,35.03
2023-02-11T10:49:04.151Z,33.50
2023-02-11T10:52:24.278Z,36.45
2023-02-11T10:55:28.718Z,34.10
2023-02-11T10:58:37.598Z,31.33
2023-02-11T11:02:04.566Z,33.65
2023-02-11T11:05:19.944Z,36.03
2023-02-11T11:08:22.469Z,38.28
2023-02-11T11:11:26.416Z,35.03
2023-02-11T11:14:29.713Z,36.77
2023-02-11T11:17:32.216Z,37.50
2023-02-11T11:20:36.393Z,38.22
2023-02-11T11:23:39.839Z,34.60
2023-02-11T11:26:45.365Z,32.70
2023-02-11T11:29:55.625Z,31.67
2023-02-11T11:32:59.332Z,29.83
2023-02-11T11:36:07.851Z,32.00
2023-02-11T11:39:33.733Z,31.10
2023-02-11T11:42:38.852Z,28.87
2023-02-11T11:45:59.364Z,29.80
2023-02-11T11:49:13.420Z,31.38
2023-02-11T11:52:26.716Z,27.38
2023-02-11T11:55:36.445Z,30.63
2023-02-11T11:58:38.875Z,32.33
2023-02-11T12:02:02.295Z,23.03
2023-02-11T12:05:24.532Z,30.52
2023-02-11T12:09:12.788Z,27.77
2023-02-11T12:12:33.567Z,26.75
2023-02-11T12:15:56.152Z,30.30
2023-02-11T12:19:20.650Z,25.80
2023-02-11T12:22:37.181Z,27.52
2023-02-11T12:25:48.071Z,27.25
2023-02-11T12:29:02.119Z,29.08
2023-02-11T12:32:08.281Z,24.20
2023-02-11T12:35:28.447Z,29.67
2023-02-11T12:39:22.996Z,27.45
2023-02-11T12:43:03.474Z,28.08
2023-02-11T12:46:48.280Z,30.00
2023-02-11T12:50:04.632Z,29.67
2023-02-11T12:53:19.637Z,28.40
2023-02-11T12:56:31.708Z,29.48
2023-02-11T13:00:11.746Z,26.77
2023-02-11T13:03:47.337Z,27.65
2023-02-11T13:07:02.671Z,27.17
2023-02-11T13:10:15.564Z,23.33
2023-02-11T13:13:23.770Z,28.00
2023-02-11T13:16:33.046Z,27.15
2023-02-11T13:19:47.277Z,24.38
2023-02-11T13:23:17.306Z,21.97
2023-02-11T13:26:26.319Z,23.33
2023-02-11T13:29:49.189Z,24.27
2023-02-11T13:32:54.787Z,22.42
2023-02-11T13:35:57.375Z,22.85
2023-02-11T13:39:03.533Z,21.17
2023-02-11T13:42:06.116Z,22.57
2023-02-11T13:45:37.597Z,22.55
2023-02-11T13:48:47.512Z,22.95
2023-02-11T13:51:51.938Z,18.65
2023-02-11T13:54:59.350Z,24.50
2023-02-11T13:58:07.785Z,21.80
2023-02-11T14:01:10.371Z,26.55
2023-02-11T14:04:47.977Z,21.40
2023-02-11T14:08:28.188Z,24.00
2023-02-11T14:11:45.026Z,25.40
2023-02-11T14:15:04.835Z,25.57
2023-02-11T14:18:37.215Z,24.65
2023-02-11T14:21:43.203Z,24.88
2023-02-11T14:24:49.908Z,24.80
2023-02-11T14:27:56.707Z,22.90
2023-02-11T14:31:07.630Z,25.23
2023-02-11T14:34:29.895Z,20.58
2023-02-11T14:38:21.806Z,21.88
2023-02-11T14:41:27.165Z,17.60
2023-02-11T14:44:32.367Z,21.50
2023-02-11T14:47:53.888Z,20.43
2023-02-11T14:51:18.849Z,23.17
2023-02-11T14:54:26.557Z,21.85
2023-02-11T14:57:29.794Z,21.83
2023-02-11T15:00:32.362Z,22.87
2023-02-11T15:03:38.917Z,21.17
2023-02-11T15:06:45.377Z,21.38
2023-02-11T15:09:54.042Z,19.58
2023-02-11T15:12:57.923Z,26.58
2023-02-11T15:16:11.188Z,25.03
2023-02-11T15:19:41.363Z,24.60
2023-02-11T15:22:46.302Z,23.02
2023-02-11T15:25:55.658Z,26.55
2023-02-11T15:28:59.414Z,26.60
2023-02-11T15:32:07.254Z,28.90
2023-02-11T15:35:11.974Z,27.83
2023-02-11T15:38:14.677Z,28.05
2023-02-11T15:41:49.461Z,29.58
2023-02-11T15:45:14.811Z,24.17
2023-02-11T15:48:26.979Z,23.97
2023-02-11T15:51:36.344Z,23.23
2023-02-11T15:54:47.165Z,28.40
2023-02-11T15:57:55.173Z,24.98
2023-02-11T16:01:00.029Z,24.38
2023-02-11T16:04:06.268Z,24.10
2023-02-11T16:07:38.961Z,25.23
2023-02-11T16:11:08.859Z,26.63
2023-02-11T16:14:32.618Z,27.40
2023-02-11T16:17:35.998Z,23.90
2023-02-11T16:20:39.017Z,29.10
2023-02-11T16:23:44.959Z,27.40
2023-02-11T16:26:53.511Z,27.83
2023-02-11T16:29:58.144Z,26.45
2023-02-11T16:33:02.142Z,27.03
2023-02-11T16:36:17.259Z,28.23
2023-02-11T16:39:24.629Z,28.63
2023-02-11T16:42:27.473Z,26.40
2023-02-11T16:45:30.139Z,31.00
2023-02-11T16:48:33.567Z,27.20
2023-02-11T16:51:39.983Z,25.60
2023-02-11T16:54:42.819Z,30.13
2023-02-11T16:57:45.576Z,28.25
2023-02-11T17:00:48.851Z,30.60
2023-02-11T17:03:51.822Z,24.50
2023-02-11T17:06:56.595Z,28.17
2023-02-11T17:10:01.202Z,29.35
2023-02-11T17:13:05.195Z,25.40
2023-02-11T17:16:16.027Z,25.80
2023-02-11T17:19:23.745Z,29.45
2023-02-11T17:22:26.516Z,28.92
2023-02-11T17:25:29.778Z,28.33
2023-02-11T17:28:32.885Z,29.23
2023-02-11T17:31:37.813Z,29.20
2023-02-11T17:34:40.969Z,29.83
2023-02-11T17:37:43.591Z,24.73
2023-02-11T17:40:46.341Z,27.23
2023-02-11T17:43:48.826Z,25.07
2023-02-11T17:46:51.520Z,27.87
2023-02-11T17:49:54.674Z,26.80
2023-02-11T17:52:57.793Z,26.80
2023-02-11T17:56:06.317Z,25.23
2023-02-11T17:59:11.247Z,26.97
2023-02-11T18:02:14.347Z,26.00
2023-02-11T18:05:17.139Z,25.75
2023-02-11T18:08:19.846Z,26.00
2023-02-11T18:11:24.097Z,28.60
2023-02-11T18:14:26.787Z,27.43
2023-02-11T18:17:29.432Z,27.73
2023-02-11T18:20:33.291Z,27.55
2023-02-11T18:23:36.104Z,22.67
2023-02-11T18:26:39.097Z,25.92
2023-02-11T18:29:41.819Z,26.77
2023-02-11T18:32:44.954Z,29.27
2023-02-11T18:35:49.250Z,25.52
2023-02-11T18:38:53.710Z,34.05
2023-02-11T18:41:58.801Z,27.17
2023-02-11T18:45:01.200Z,26.43
2023-02-11T18:48:05.797Z,24.77
2023-02-11T18:51:10.449Z,27.23
2023-02-11T18:54:13.516Z,26.48
2023-02-11T18:57:16.156Z,27.42
2023-02-11T19:00:20.777Z,31.47
2023-02-11T19:03:23.497Z,23.93
2023-02-11T19:06:28.993Z,27.25
2023-02-11T19:09:31.960Z,28.70
2023-02-11T19:12:35.071Z,28.58
2023-02-11T19:15:46.638Z,34.63
2023-02-11T19:18:50.015Z,30.03
2023-02-11T19:21:52.881Z,26.63
2023-02-11T19:24:55.340Z,28.85
2023-02-11T19:27:58.043Z,24.92
2023-02-11T19:31:10.024Z,25.03
2023-02-11T19:34:19.928Z,24.87
2023-02-11T19:37:22.412Z,26.80
2023-02-11T19:40:25.256Z,28.55
2023-02-11T19:43:28.614Z,28.13
2023-02-11T19:46:34.865Z,25.53
2023-02-11T19:49:37.543Z,25.77
2023-02-11T19:52:40.817Z,24.60
2023-02-11T19:55:43.712Z,27.00
2023-02-11T19:58:46.454Z,26.10
2023-02-11T20:01:49.998Z,26.07
2023-02-11T20:04:53.004Z,23.40
2023-02-11T20:07:55.557Z,24.05
2023-02-11T20:11:05.397Z,23.20
2023-02-11T20:14:08.665Z,26.88
2023-02-11T20:17:11.411Z,26.07
2023-02-11T20:20:14.202Z,27.47
2023-02-11T20:23:16.886Z,23.23
2023-02-11T20:26:22.743Z,23.10
2023-02-11T20:29:25.923Z,22.40
2023-02-11T20:32:31.145Z,23.30
2023-02-11T20:35:35.345Z,23.83
2023-02-11T20:38:38.242Z,23.27
2023-02-11T20:41:41.069Z,22.05
2023-02-11T20:44:45.335Z,23.27
2023-02-11T20:47:47.800Z,23.60
2023-02-11T20:50:50.746Z,23.45
2023-02-11T20:53:54.339Z,20.52
2023-02-11T20:56:58.208Z,25.42
2023-02-11T21:00:00.688Z,18.47
2023-02-11T21:03:04.287Z,22.25
2023-02-11T21:06:08.101Z,22.25
2023-02-11T21:09:17.720Z,24.77
2023-02-11T21:12:20.694Z,23.03
2023-02-11T21:15:24.138Z,21.57
2023-02-11T21:18:27.145Z,23.70
2023-02-11T21:21:30.829Z,22.85
2023-02-11T21:24:33.563Z,22.08
2023-02-11T21:27:36.363Z,21.60
2023-02-11T21:30:40.008Z,24.25
2023-02-11T21:33:42.740Z,21.90
2023-02-11T21:36:45.579Z,24.38
2023-02-11T21:39:48.293Z,23.20
2023-02-11T21:42:51.332Z,19.63
2023-02-11T21:45:54.156Z,18.92
2023-02-11T21:48:57.879Z,21.70
2023-02-11T21:52:00.654Z,22.85
2023-02-11T21:55:03.666Z,20.63
2023-02-11T21:58:07.866Z,22.33
2023-02-11T22:01:15.467Z,22.13
2023-02-11T22:04:18.191Z,24.02
2023-02-11T22:07:22.714Z,20.40
2023-02-11T22:10:25.395Z,24.77
2023-02-11T22:13:28.056Z,22.90
2023-02-11T22:16:31.251Z,22.52
2023-02-11T22:19:34.316Z,22.98
2023-02-11T22:22:37.102Z,22.87
2023-02-11T22:25:39.568Z,20.42
2023-02-11T22:28:42.863Z,21.95
2023-02-11T22:31:45.384Z,24.10
2023-02-11T22:34:47.866Z,21.13
2023-02-11T22:37:50.312Z,20.95
2023-02-11T22:40:52.939Z,19.83
2023-02-11T22:43:55.530Z,23.17
2023-02-11T22:46:58.131Z,19.80
2023-02-11T22:50:00.712Z,22.88
2023-02-11T22:53:03.135Z,19.23
2023-02-11T22:56:10.575Z,20.77
2023-02-11T22:59:15.397Z,23.07
2023-02-11T23:02:17.953Z,19.42
2023-02-11T23:05:20.492Z,20.15
2023-02-11T23:08:22.988Z,18.48
2023-02-11T23:11:28.662Z,22.53
2023-02-11T23:14:31.342Z,23.35
2023-02-11T23:17:33.925Z,19.20
2023-02-11T23:20:42.437Z,23.17
2023-02-11T23:23:45.862Z,17.60
2023-02-11T23:26:49.157Z,23.52
2023-02-11T23:29:51.770Z,20.85
2023-02-11T23:32:54.414Z,20.30
2023-02-11T23:35:57.004Z,22.90
2023-02-11T23:39:00.041Z,18.63
2023-02-11T23:42:02.676Z,22.05
2023-02-11T23:45:05.723Z,19.50
2023-02-11T23:48:08.146Z,19.17
2023-02-11T23:51:10.857Z,22.42
2023-02-11T23:54:15.161Z,23.75
2023-02-11T23:57:17.922Z,20.00
